Airfield :
LOGIN :

Register | Disclaimer

   EN    FR    IT 

 










Legend :    VFR   Marginal VFR   IFR   Intensive IFR   Very Intensive IFR
Visi :
Ceiling :
>= 8 km
>= 3000ft
5 to 8 km
1000 to 3000 ft
1500m to 5 km
500 to 1000 ft
800 to 1500m
200 to 500 ft
< 800m
< 200 ft
Symbols :   Thunderstorms  Fog  Heavy snow  Heavy precipitations  Wind > 20 kt
SIGMETs :     Misc.  Thunderstorms  Icing  Turbulence  Mountain Waves  Volcanic Ashes






- Airport Elevation : 53 ft
- IATA code : LBC


EDHL - Lübeck

CURRENT METAR :
  • 201620Z VRB01KT 4000 BR BKN005 04/04 Q1017

EXPIRED METARs :
  • 201550Z 30002KT 3300 BR BKN005 05/04 Q1017
  • 201520Z 30002KT 2400 -DZ FEW003 BKN004 05/04 Q1017
  • 201450Z 28002KT 3100 BR BKN004 05/04 Q1017
  • 201420Z 29002KT 2800 BR FEW003 BKN004 05/04 Q1017
  • 201350Z 28002KT 4100 BR BKN006 05/04 Q1018

TAF TAF EDHL
Valid from the 20 at 15:00 until the 20 at 21:00 UTC


201400Z 2015/2021 VRB02KT 2000 -DZ BKN004
TEMPO 2015/2021 4000 BR BKN006
PROB30
TEMPO 2015/2019 SCT004 BKN020
PROB30
TEMPO 2019/2021 0700 FG OVC001



MET'MAP, your aeronautical weather chart ! - Copyright ORBIFLY December 2007 - Disclaimer

ORBIFLY MET'MAP TEAM :

Programming & Development : Alexandra Zaïnal
Concept & Development : Baudouin d'Aumeries
Co-Development & Prog : Marc-Olivier Méhu
Technical & hardware support : Manuel Goepfert

Contact : metmap@orbifly.com




SOURCES & CREDITS :

   NOAA